Time;durP1;ratioP1;P1;durP2;ratioP2;P2;SDS_P1;SDS_P2;PMS_P1;PMS_P2;Temp;Humidity;BMP_temperature;BMP_pressure;BME280_temperature;BME280_humidity;BME280_pressure;Samples;Min_cycle;Max_cycle;Signal;HPM_P1;HPM_P2
2022/08/16 05:20:41;;;;;;;;;;;;;;;22.24;51.72;96282.31;4223711;27;10234;-66
2022/08/16 05:23:04;;;;;;;;;;;;;;;22.53;51.52;96280.47;4210548;28;5681;-65
2022/08/16 05:25:11;;;;;;;;;;;;;;;22.74;51.15;96272.22;4208924;28;5880;-66
2022/08/16 05:27:14;;;;;;;;;;;;;;;22.91;51.16;96276.16;4214607;28;5690;-66
2022/08/16 05:29:16;;;;;;;;;;;;;;;23.05;50.58;96278.16;4199163;28;5892;-66
2022/08/16 05:31:22;;;;;;;;;;;;;;;23.16;50.49;96275.09;4205863;28;5714;-66
2022/08/16 05:33:31;;;;;;;;;;;;;;;23.26;50.33;96278.78;4213499;28;5693;-66
2022/08/16 05:35:35;;;;;;;;;;;;;;;23.34;49.99;96278.94;4213499;28;5784;-66
2022/08/16 05:37:41;;;;;;;;;;;;;;;23.41;50.00;96281.28;4212565;28;5689;-65
2022/08/16 05:39:44;;;;;;;;;;;;;;;23.45;49.90;96274.25;4209787;28;5842;-66
2022/08/16 05:41:47;;;;;;;;;;;;;;;23.51;49.99;96281.19;4208866;28;5651;-66
2022/08/16 05:43:53;;;;;;;;;;;;;;;23.56;49.54;96283.00;4208826;28;5925;-66
2022/08/16 05:46:01;;;;;;;;;;;;;;;23.61;49.25;96277.59;4205591;28;7752;-66
2022/08/16 05:48:24;;;;;;;;;;;;;;;23.65;49.55;96284.81;4212549;28;5802;-65
2022/08/16 05:50:29;;;;;;;;;;;;;;;23.69;48.92;96287.75;4205483;28;5764;-66
2022/08/16 05:52:36;;;;;;;;;;;;;;;23.71;49.40;96286.38;4198960;28;6167;-66
2022/08/16 05:54:48;;;;;;;;;;;;;;;23.75;49.03;96298.19;4202480;28;5786;-67
2022/08/16 05:57:04;;;;;;;;;;;;;;;23.76;48.66;96294.38;4205763;28;5635;-66
2022/08/16 05:59:07;;;;;;;;;;;;;;;23.79;49.07;96293.81;4206856;28;5746;-66
2022/08/16 06:01:12;;;;;;;;;;;;;;;23.81;48.52;96297.03;4197315;28;5719;-66
2022/08/16 06:03:15;;;;;;;;;;;;;;;23.84;48.52;96295.66;4209137;28;7416;-67
2022/08/16 06:05:19;;;;;;;;;;;;;;;23.90;48.32;96304.47;4209322;28;5788;-66
2022/08/16 06:07:22;;;;;;;;;;;;;;;23.99;48.72;96297.34;4202332;28;5734;-69
2022/08/16 06:09:28;;;;;;;;;;;;;;;24.09;48.29;96297.19;4226543;28;5783;-70
2022/08/16 06:11:47;;;;;;;;;;;;;;;24.18;48.32;96300.84;4230430;28;5770;-69
2022/08/16 06:13:52;;;;;;;;;;;;;;;24.26;47.72;96289.41;4209678;28;5701;-69
2022/08/16 06:15:57;;;;;;;;;;;;;;;24.34;47.59;96304.97;4210436;28;5706;-70
2022/08/16 06:18:01;;;;;;;;;;;;;;;24.41;47.74;96293.00;4206564;28;5908;-70
2022/08/16 06:20:05;;;;;;;;;;;;;;;24.46;47.40;96291.00;4209809;28;5715;-70
2022/08/16 06:22:08;;;;;;;;;;;;;;;24.50;47.47;96283.94;4218555;28;5807;-70
2022/08/16 06:24:21;;;;;;;;;;;;;;;24.55;47.18;96293.84;4208492;28;5698;-70
2022/08/16 06:26:44;;;;;;;;;;;;;;;24.50;47.38;96305.56;4202149;28;5814;-70
2022/08/16 06:29:01;;;;;;;;;;;;;;;24.51;47.24;96309.06;4202239;28;5697;-70
2022/08/16 06:31:05;;;;;;;;;;;;;;;24.49;47.60;96305.84;4202418;28;5714;-70
2022/08/16 06:33:17;;;;;;;;;;;;;;;24.47;47.35;96311.56;4202125;28;5682;-70
2022/08/16 06:35:24;;;;;;;;;;;;;;;24.50;47.10;96307.44;4202504;28;5689;-70
2022/08/16 06:37:42;;;;;;;;;;;;;;;24.52;47.45;96311.47;4202526;28;5685;-70
2022/08/16 06:39:53;;;;;;;;;;;;;;;24.52;47.59;96311.47;4201829;28;5721;-70
2022/08/16 06:41:56;;;;;;;;;;;;;;;24.48;47.40;96304.25;4202186;28;5689;-70
2022/08/16 06:44:00;;;;;;;;;;;;;;;24.49;47.50;96303.94;4202370;28;5714;-70
2022/08/16 06:46:09;;;;;;;;;;;;;;;24.51;47.74;96303.66;4202008;28;5730;-70
2022/08/16 06:48:12;;;;;;;;;;;;;;;24.50;47.64;96318.25;4201997;28;5685;-70
2022/08/16 06:50:21;;;;;;;;;;;;;;;24.54;47.12;96313.88;4202081;28;5761;-70
2022/08/16 06:52:35;;;;;;;;;;;;;;;24.56;47.13;96320.56;4201953;28;5837;-70
2022/08/16 06:54:58;;;;;;;;;;;;;;;24.59;47.24;96311.09;4200417;28;5775;-70
2022/08/16 06:57:02;;;;;;;;;;;;;;;24.54;47.37;96316.56;4200935;28;5646;-70
2022/08/16 06:59:05;;;;;;;;;;;;;;;24.51;47.21;96311.75;4207390;28;5795;-70
2022/08/16 07:01:13;;;;;;;;;;;;;;;24.51;47.70;96320.66;4201981;28;6363;-70
2022/08/16 07:03:19;;;;;;;;;;;;;;;24.52;47.36;96313.38;4201711;28;5737;-70
2022/08/16 07:05:31;;;;;;;;;;;;;;;24.56;47.63;96322.47;4201918;28;5733;-70
2022/08/16 07:07:47;;;;;;;;;;;;;;;24.56;47.75;96327.88;4201783;28;5698;-70
2022/08/16 07:09:53;;;;;;;;;;;;;;;24.51;47.69;96326.06;4201192;28;5828;-70
2022/08/16 07:11:57;;;;;;;;;;;;;;;24.51;47.75;96325.28;4201868;28;6387;-70
2022/08/16 07:14:06;;;;;;;;;;;;;;;24.51;47.96;96323.38;4201586;28;5711;-70
2022/08/16 07:16:30;;;;;;;;;;;;;;;24.46;48.00;96318.03;4201789;28;6478;-70
2022/08/16 07:18:34;;;;;;;;;;;;;;;24.43;48.18;96325.91;4201778;28;5695;-70
2022/08/16 07:20:37;;;;;;;;;;;;;;;24.40;47.97;96319.22;4201213;28;5695;-70
2022/08/16 07:22:54;;;;;;;;;;;;;;;24.42;47.89;96316.22;4201305;28;5757;-70
2022/08/16 07:25:01;;;;;;;;;;;;;;;24.46;48.46;96314.53;4197883;28;5772;-70
2022/08/16 07:27:04;;;;;;;;;;;;;;;24.46;48.02;96312.63;4197081;28;5743;-71
2022/08/16 07:29:14;;;;;;;;;;;;;;;24.46;48.21;96306.41;4185089;28;5710;-70
2022/08/16 07:31:21;;;;;;;;;;;;;;;24.41;48.47;96310.00;4196993;28;5751;-70
2022/08/16 07:33:25;;;;;;;;;;;;;;;24.44;48.67;96316.72;4200520;28;5702;-70
2022/08/16 07:35:49;;;;;;;;;;;;;;;24.46;48.51;96325.34;4201379;28;5753;-70
2022/08/16 07:37:52;;;;;;;;;;;;;;;24.51;48.40;96325.28;4201178;28;5679;-70
2022/08/16 07:39:55;;;;;;;;;;;;;;;24.53;48.45;96328.47;4200851;28;6363;-70
2022/08/16 07:41:59;;;;;;;;;;;;;;;24.50;48.70;96334.47;4200975;28;5800;-70
2022/08/16 07:44:02;;;;;;;;;;;;;;;24.52;48.63;96326.88;4201279;28;5699;-70
2022/08/16 07:46:18;;;;;;;;;;;;;;;24.53;48.43;96328.47;4201555;28;5784;-70
2022/08/16 07:48:42;;;;;;;;;;;;;;;24.55;48.89;96321.69;4200697;28;5827;-70
2022/08/16 07:50:49;;;;;;;;;;;;;;;24.55;48.83;96328.97;4201202;28;5761;-70
2022/08/16 07:53:00;;;;;;;;;;;;;;;24.50;48.47;96326.38;4201401;28;5480;-70
2022/08/16 07:55:04;;;;;;;;;;;;;;;24.51;48.72;96325.28;4200695;28;5714;-70
2022/08/16 07:57:07;;;;;;;;;;;;;;;24.53;48.63;96328.47;4201136;28;5695;-70
2022/08/16 07:59:13;;;;;;;;;;;;;;;24.53;48.49;96321.16;4200888;28;5682;-70
2022/08/16 08:01:16;;;;;;;;;;;;;;;24.54;48.89;96327.38;4200961;28;5699;-70
2022/08/16 08:03:19;;;;;;;;;;;;;;;24.54;48.70;96322.78;4200915;28;5780;-70
2022/08/16 08:05:25;;;;;;;;;;;;;;;24.55;48.75;96326.28;4199355;28;5655;-69
2022/08/16 08:07:38;;;;;;;;;;;;;;;24.54;48.48;96330.06;4201140;28;5066;-70
2022/08/16 08:09:47;;;;;;;;;;;;;;;24.54;48.57;96332.78;4200648;28;5701;-69
2022/08/16 08:11:52;;;;;;;;;;;;;;;24.54;48.64;96330.06;4200416;28;5812;-69
2022/08/16 08:14:03;;;;;;;;;;;;;;;24.48;48.82;96334.78;4200842;28;5767;-69
2022/08/16 08:16:09;;;;;;;;;;;;;;;24.46;48.75;96328.84;4200633;28;5780;-70
2022/08/16 08:18:21;;;;;;;;;;;;;;;24.47;49.05;96335.06;4200721;28;5756;-70
2022/08/16 08:20:33;;;;;;;;;;;;;;;24.50;49.14;96340.69;4200641;28;5716;-70
2022/08/16 08:22:38;;;;;;;;;;;;;;;24.54;48.69;96344.38;4200591;28;5690;-69
2022/08/16 08:24:41;;;;;;;;;;;;;;;24.57;48.47;96348.41;4200447;28;5798;-70
2022/08/16 08:26:46;;;;;;;;;;;;;;;24.57;48.72;96343.00;4200266;28;5690;-69
2022/08/16 08:28:52;;;;;;;;;;;;;;;24.55;49.01;96345.19;4200613;28;5689;-70
2022/08/16 08:31:02;;;;;;;;;;;;;;;24.59;48.86;96343.53;4200458;28;5719;-69
2022/08/16 08:33:05;;;;;;;;;;;;;;;24.61;48.91;96338.63;4199282;28;5639;-69
2022/08/16 08:35:10;;;;;;;;;;;;;;;24.63;48.83;96345.34;4200488;28;5907;-70
2022/08/16 08:37:16;;;;;;;;;;;;;;;24.63;48.82;96348.03;4199024;28;7846;-70
2022/08/16 08:39:19;;;;;;;;;;;;;;;24.65;49.05;96348.56;4200227;28;5991;-70
2022/08/16 08:41:27;;;;;;;;;;;;;;;24.70;49.09;96344.19;4200111;28;5803;-70
2022/08/16 08:43:30;;;;;;;;;;;;;;;24.73;48.79;96349.78;4200290;28;5726;-70
2022/08/16 08:45:44;;;;;;;;;;;;;;;24.76;48.96;96348.41;4200208;28;5690;-70
2022/08/16 08:47:56;;;;;;;;;;;;;;;24.78;48.88;96346.19;4200648;28;5710;-69
2022/08/16 08:50:00;;;;;;;;;;;;;;;24.79;48.59;96348.59;4200410;28;5698;-69
2022/08/16 08:52:05;;;;;;;;;;;;;;;24.80;48.54;96355.59;4200201;28;5838;-69
2022/08/16 08:54:13;;;;;;;;;;;;;;;24.83;48.51;96355.03;4200209;28;5679;-71
2022/08/16 08:56:23;;;;;;;;;;;;;;;24.84;48.47;96363.94;4198869;28;6569;-70
2022/08/16 08:58:27;;;;;;;;;;;;;;;24.83;48.48;96363.16;4196011;28;5711;-70
2022/08/16 09:00:38;;;;;;;;;;;;;;;24.84;48.76;96366.66;4193353;28;5778;-69
2022/08/16 09:02:53;;;;;;;;;;;;;;;24.85;48.94;96363.66;4191806;28;5793;-70
2022/08/16 09:04:58;;;;;;;;;;;;;;;24.87;48.95;96358.75;4196931;28;5863;-69
2022/08/16 09:07:02;;;;;;;;;;;;;;;24.86;48.45;96354.44;4199158;28;5753;-70
2022/08/16 09:09:08;;;;;;;;;;;;;;;24.85;48.60;96352.84;4198781;28;5788;-70
2022/08/16 09:11:20;;;;;;;;;;;;;;;24.86;48.57;96359.84;4186602;28;6479;-70
2022/08/16 09:13:23;;;;;;;;;;;;;;;24.89;49.02;96363.84;4199362;28;5694;-69
2022/08/16 09:15:27;;;;;;;;;;;;;;;24.88;48.75;96362.25;4199907;28;5717;-70
2022/08/16 09:17:36;;;;;;;;;;;;;;;24.87;48.45;96357.94;4190496;28;5682;-69
2022/08/16 09:19:55;;;;;;;;;;;;;;;24.87;48.85;96366.06;4190236;28;6356;-70
2022/08/16 09:22:00;;;;;;;;;;;;;;;24.88;48.95;96371.16;4182891;28;5891;-70
2022/08/16 09:24:04;;;;;;;;;;;;;;;24.88;48.67;96368.47;4188754;28;5691;-70
2022/08/16 09:26:24;;;;;;;;;;;;;;;24.90;48.76;96371.66;4199672;28;6367;-70
2022/08/16 09:28:48;;;;;;;;;;;;;;;24.90;48.58;96370.88;4199125;28;5898;-70
2022/08/16 09:31:12;;;;;;;;;;;;;;;24.91;48.27;96367.88;4198922;28;5757;-69
2022/08/16 09:33:17;;;;;;;;;;;;;;;24.91;48.06;96369.78;4199790;28;5690;-72
2022/08/16 09:35:22;;;;;;;;;;;;;;;24.94;47.93;96355.69;4200227;28;5075;-69
2022/08/16 09:37:25;;;;;;;;;;;;;;;24.97;48.23;96353.19;4198948;28;5784;-69
2022/08/16 09:39:31;;;;;;;;;;;;;;;25.00;48.23;96359.91;4199299;28;5702;-69
2022/08/16 09:41:43;;;;;;;;;;;;;;;25.03;47.60;96358.53;4198828;28;6374;-69
2022/08/16 09:43:57;;;;;;;;;;;;;;;25.07;47.51;96348.75;4200130;28;5701;-69
2022/08/16 09:46:22;;;;;;;;;;;;;;;25.09;47.51;96351.94;4200005;28;5063;-69
2022/08/16 09:48:45;;;;;;;;;;;;;;;25.10;47.62;96348.94;4199694;28;5705;-69
2022/08/16 09:50:53;;;;;;;;;;;;;;;25.10;47.70;96342.72;4198932;28;5717;-70
2022/08/16 09:52:58;;;;;;;;;;;;;;;25.10;47.82;96348.13;4198887;28;6201;-69
2022/08/16 09:55:02;;;;;;;;;;;;;;;25.12;47.61;96345.94;4199533;28;5690;-69
2022/08/16 09:57:06;;;;;;;;;;;;;;;25.13;47.20;96344.84;4201851;28;5701;-69
2022/08/16 09:59:15;;;;;;;;;;;;;;;25.17;47.32;96343.97;4202384;28;5768;-69
2022/08/16 10:01:18;;;;;;;;;;;;;;;25.18;47.15;96339.34;4200656;28;5776;-69
2022/08/16 10:03:22;;;;;;;;;;;;;;;25.20;46.95;96347.97;4201287;28;5699;-69
2022/08/16 10:05:25;;;;;;;;;;;;;;;25.20;47.14;96348.78;4202614;28;5710;-69
2022/08/16 10:07:32;;;;;;;;;;;;;;;25.25;46.76;96345.97;4198786;28;5635;-69
2022/08/16 10:09:47;;;;;;;;;;;;;;;25.31;46.78;96346.69;4192083;28;5997;-69
2022/08/16 10:14:29;;;;;;;;;;;;;;;25.35;46.82;96352.28;4202382;28;5689;-69
2022/08/16 10:16:35;;;;;;;;;;;;;;;25.38;46.82;96349.00;4196099;28;5718;-69
2022/08/16 10:18:42;;;;;;;;;;;;;;;25.39;47.10;96346.00;4185651;28;5792;-69
2022/08/16 10:21:05;;;;;;;;;;;;;;;25.43;46.74;96347.00;4192569;28;5677;-69
2022/08/16 10:23:15;;;;;;;;;;;;;;;25.44;46.91;96342.41;4199069;28;5631;-69
2022/08/16 10:25:19;;;;;;;;;;;;;;;25.43;46.52;96349.72;4202049;28;7252;-69
2022/08/16 10:27:43;;;;;;;;;;;;;;;25.44;46.39;96348.59;4201763;28;5757;-69
2022/08/16 10:29:53;;;;;;;;;;;;;;;25.46;46.59;96348.31;4202408;28;6312;-69
2022/08/16 10:32:08;;;;;;;;;;;;;;;25.48;46.30;96344.22;4201057;28;5749;-69
2022/08/16 10:34:11;;;;;;;;;;;;;;;25.50;46.15;96336.59;4202112;28;5701;-69
2022/08/16 10:36:34;;;;;;;;;;;;;;;25.52;46.08;96337.09;4191635;28;5797;-69
2022/08/16 10:38:42;;;;;;;;;;;;;;;25.51;45.98;96332.78;4201099;28;5791;-69
2022/08/16 10:40:45;;;;;;;;;;;;;;;25.54;45.97;96332.19;4201335;28;5803;-69
2022/08/16 10:42:51;;;;;;;;;;;;;;;25.55;45.49;96336.50;4198405;28;6028;-69
2022/08/16 10:44:55;;;;;;;;;;;;;;;25.61;45.63;96333.69;4197428;28;5710;-69
2022/08/16 10:46:58;;;;;;;;;;;;;;;25.61;45.51;96331.00;4201917;28;5777;-69
2022/08/16 10:49:03;;;;;;;;;;;;;;;25.66;45.33;96328.97;4200666;28;5896;-69
2022/08/16 10:51:08;;;;;;;;;;;;;;;25.68;45.10;96323.25;4200457;28;5812;-69
2022/08/16 10:53:12;;;;;;;;;;;;;;;25.70;45.19;96329.19;4195505;28;5711;-69
2022/08/16 10:55:16;;;;;;;;;;;;;;;25.73;44.78;96320.50;4201727;28;5870;-69
2022/08/16 10:57:39;;;;;;;;;;;;;;;25.75;44.95;96318.28;4184956;28;5905;-70
2022/08/16 10:59:42;;;;;;;;;;;;;;;25.77;44.82;96324.19;4189037;28;5880;-69
2022/08/16 11:01:58;;;;;;;;;;;;;;;25.79;44.53;96328.19;4201078;28;5726;-69
2022/08/16 11:04:21;;;;;;;;;;;;;;;25.81;44.37;96319.78;4186534;28;5810;-70
2022/08/16 11:06:45;;;;;;;;;;;;;;;25.82;44.71;96322.22;4193197;28;7758;-69
2022/08/16 11:09:08;;;;;;;;;;;;;;;25.85;44.58;96320.00;4187926;28;5793;-69
2022/08/16 11:11:30;;;;;;;;;;;;;;;25.86;44.34;96316.97;4190923;28;5800;-69
2022/08/16 11:13:34;;;;;;;;;;;;;;;25.85;44.42;96315.38;4201292;28;5754;-70
2022/08/16 11:15:58;;;;;;;;;;;;;;;25.88;44.53;96319.38;4201248;28;5690;-69
2022/08/16 11:18:27;;;;;;;;;;;;;;;25.90;44.30;96323.38;4185204;28;5813;-69
2022/08/16 11:20:50;;;;;;;;;;;;;;;25.92;44.43;96329.28;4196667;28;6041;-69
2022/08/16 11:22:54;;;;;;;;;;;;;;;25.94;44.48;96318.97;4198097;28;5862;-69
2022/08/16 11:25:02;;;;;;;;;;;;;;;25.94;44.53;96318.97;4197639;28;5801;-69
2022/08/16 11:27:25;;;;;;;;;;;;;;;25.94;44.50;96327.09;4201083;28;5880;-70
2022/08/16 11:29:37;;;;;;;;;;;;;;;25.94;44.23;96318.19;4184804;28;5718;-69
2022/08/16 11:31:41;;;;;;;;;;;;;;;25.94;44.57;96318.97;4190061;28;5713;-69
2022/08/16 11:33:57;;;;;;;;;;;;;;;25.96;44.46;96319.47;4201568;28;7765;-69
2022/08/16 11:36:01;;;;;;;;;;;;;;;25.99;44.46;96318.06;4198718;28;5806;-69
2022/08/16 11:38:24;;;;;;;;;;;;;;;26.02;44.45;96317.44;4188946;28;5777;-69
2022/08/16 11:40:51;;;;;;;;;;;;;;;26.01;44.15;96319.34;4199621;28;5706;-70
2022/08/16 11:42:55;;;;;;;;;;;;;;;26.03;44.24;96319.84;4191340;28;5734;-70
2022/08/16 11:44:58;;;;;;;;;;;;;;;26.06;44.19;96313.84;4184526;28;5806;-70
2022/08/16 11:47:01;;;;;;;;;;;;;;;26.08;44.14;96314.34;4193498;28;5706;-70
2022/08/16 11:49:06;;;;;;;;;;;;;;;26.11;44.03;96313.72;4199257;28;5768;-70
2022/08/16 11:51:15;;;;;;;;;;;;;;;26.13;43.54;96308.81;4198131;28;5697;-70
2022/08/16 11:53:19;;;;;;;;;;;;;;;26.14;43.82;96306.91;4199967;28;5785;-71
2022/08/16 11:55:23;;;;;;;;;;;;;;;26.17;43.44;96308.22;4200982;28;5788;-70
2022/08/16 11:57:27;;;;;;;;;;;;;;;26.19;43.50;96306.00;4199647;28;5126;-70
2022/08/16 11:59:30;;;;;;;;;;;;;;;26.20;43.37;96310.31;4198576;28;5643;-71
2022/08/16 12:01:34;;;;;;;;;;;;;;;26.20;43.62;96307.59;4199999;28;5794;-70
2022/08/16 12:03:57;;;;;;;;;;;;;;;26.22;43.47;96305.38;4200058;28;5712;-70
2022/08/16 12:06:08;;;;;;;;;;;;;;;26.23;43.72;96298.84;4197136;28;6389;-70
2022/08/16 12:08:14;;;;;;;;;;;;;;;26.23;43.37;96298.84;4184082;28;5859;-71
2022/08/16 12:10:20;;;;;;;;;;;;;;;26.25;43.66;96300.16;4194881;28;5695;-69
2022/08/16 12:12:23;;;;;;;;;;;;;;;26.27;43.69;96289.00;4201143;28;5706;-69
2022/08/16 12:14:30;;;;;;;;;;;;;;;26.29;43.57;96295.75;4201116;28;5694;-71
2022/08/16 12:16:38;;;;;;;;;;;;;;;26.30;43.42;96301.97;4200058;28;5905;-69
2022/08/16 12:18:50;;;;;;;;;;;;;;;26.32;43.33;96297.81;4192529;28;5763;-68
2022/08/16 12:20:55;;;;;;;;;;;;;;;26.36;43.60;96287.16;4188472;28;5699;-69
2022/08/16 12:23:03;;;;;;;;;;;;;;;26.38;43.36;96287.69;4184010;28;7214;-68
2022/08/16 12:25:09;;;;;;;;;;;;;;;26.39;43.31;96287.41;4197892;28;5698;-69
2022/08/16 12:27:12;;;;;;;;;;;;;;;26.42;43.47;96290.59;4200413;28;7686;-68
2022/08/16 12:29:18;;;;;;;;;;;;;;;26.42;43.17;96286.00;4200357;28;5686;-68
2022/08/16 12:31:21;;;;;;;;;;;;;;;26.42;43.17;96286.00;4199818;28;5702;-69
2022/08/16 12:33:25;;;;;;;;;;;;;;;26.42;43.46;96283.28;4200672;28;5772;-68
2022/08/16 12:35:30;;;;;;;;;;;;;;;26.45;43.35;96274.53;4199771;28;5793;-68
2022/08/16 12:37:34;;;;;;;;;;;;;;;26.47;43.26;96283.16;4197690;28;5930;-68
2022/08/16 12:39:38;;;;;;;;;;;;;;;26.47;42.91;96271.50;4199514;28;5706;-68
2022/08/16 12:41:53;;;;;;;;;;;;;;;26.46;43.10;96278.03;4199256;28;5796;-68
2022/08/16 12:43:57;;;;;;;;;;;;;;;26.48;42.88;96278.53;4200481;28;5689;-69
2022/08/16 12:46:03;;;;;;;;;;;;;;;26.50;42.91;96271.69;4199422;28;5944;-69
2022/08/16 12:50:37;;;;;;;;;;;;;;;26.57;42.77;96272.06;4192470;28;5744;-69
2022/08/16 12:52:42;;;;;;;;;;;;;;;26.61;42.81;96264.91;4186350;28;5714;-69
2022/08/16 12:54:56;;;;;;;;;;;;;;;26.63;42.85;96270.84;4183677;28;5798;-68
2022/08/16 12:57:02;;;;;;;;;;;;;;;26.66;42.50;96262.09;4196411;28;5698;-68
2022/08/16 12:59:09;;;;;;;;;;;;;;;26.68;42.56;96262.56;4200089;28;5686;-68
2022/08/16 13:01:13;;;;;;;;;;;;;;;26.70;42.60;96254.94;4183746;28;5718;-68
2022/08/16 13:03:17;;;;;;;;;;;;;;;26.73;42.68;96260.84;4193579;28;5693;-69
2022/08/16 13:05:25;;;;;;;;;;;;;;;26.75;42.54;96253.22;4191496;28;5790;-69
2022/08/16 13:07:32;;;;;;;;;;;;;;;26.78;42.06;96258.81;4198953;28;5793;-68
2022/08/16 13:09:52;;;;;;;;;;;;;;;26.81;42.21;96249.25;4196837;28;5646;-69
2022/08/16 13:12:04;;;;;;;;;;;;;;;26.84;42.33;96238.59;4198553;28;5813;-69
2022/08/16 13:14:07;;;;;;;;;;;;;;;26.84;41.94;96243.19;4199348;28;5279;-69
2022/08/16 13:16:21;;;;;;;;;;;;;;;26.83;41.97;96241.59;4200264;28;5796;-69
2022/08/16 13:18:28;;;;;;;;;;;;;;;26.85;41.77;96240.19;4200032;28;5757;-69
2022/08/16 13:20:37;;;;;;;;;;;;;;;26.87;41.75;96234.47;4184784;28;5830;-68
2022/08/16 13:22:44;;;;;;;;;;;;;;;26.92;41.75;96234.31;4183500;28;5719;-69
2022/08/16 13:24:49;;;;;;;;;;;;;;;26.94;41.45;96234.81;4185899;28;5711;-69
2022/08/16 13:26:53;;;;;;;;;;;;;;;26.95;41.26;96241.81;4182789;28;6449;-69
2022/08/16 13:28:57;;;;;;;;;;;;;;;26.93;41.14;96236.72;4191824;28;5821;-69
2022/08/16 13:31:01;;;;;;;;;;;;;;;26.93;41.03;96233.22;4201210;28;5694;-69
2022/08/16 13:33:05;;;;;;;;;;;;;;;26.94;41.14;96232.09;4202197;28;5732;-69
2022/08/16 13:35:15;;;;;;;;;;;;;;;26.96;40.91;96227.97;4203501;28;5718;-69
2022/08/16 13:37:18;;;;;;;;;;;;;;;26.99;40.80;96232.78;4203082;28;5800;-69
2022/08/16 13:39:21;;;;;;;;;;;;;;;27.01;40.64;96226.22;4200991;28;5717;-69
2022/08/16 13:41:26;;;;;;;;;;;;;;;27.02;40.38;96214.28;4201872;28;5793;-69
2022/08/16 13:43:32;;;;;;;;;;;;;;;27.04;40.31;96214.78;4202743;28;5693;-69
2022/08/16 13:45:37;;;;;;;;;;;;;;;27.03;40.47;96213.97;4196179;28;5839;-69
2022/08/16 13:47:47;;;;;;;;;;;;;;;27.07;40.52;96208.72;4202926;28;5701;-69
2022/08/16 13:49:55;;;;;;;;;;;;;;;27.07;40.07;96209.56;4202971;28;5729;-70
2022/08/16 13:51:58;;;;;;;;;;;;;;;27.04;39.96;96212.88;4202934;28;5765;-70
2022/08/16 13:54:03;;;;;;;;;;;;;;;27.02;40.22;96206.16;4192883;28;5715;-70
2022/08/16 13:56:06;;;;;;;;;;;;;;;27.02;40.25;96204.25;4187189;28;5706;-70
2022/08/16 13:58:24;;;;;;;;;;;;;;;27.00;40.06;96201.03;4201003;28;5730;-69
2022/08/16 14:00:42;;;;;;;;;;;;;;;26.99;40.06;96199.44;4202280;28;5729;-70
2022/08/16 14:02:45;;;;;;;;;;;;;;;26.98;40.13;96195.13;4201764;28;5849;-70
2022/08/16 14:04:50;;;;;;;;;;;;;;;26.98;40.11;96197.81;4203275;28;5697;-70
2022/08/16 14:07:10;;;;;;;;;;;;;;;26.97;40.04;96190.81;4202611;28;5868;-70
2022/08/16 14:09:21;;;;;;;;;;;;;;;26.98;40.07;96195.13;4200118;28;5694;-70
2022/08/16 14:11:25;;;;;;;;;;;;;;;26.97;39.76;96182.66;4201115;28;5679;-70
2022/08/16 14:13:31;;;;;;;;;;;;;;;26.97;39.75;96182.66;4198927;28;5079;-70
2022/08/16 14:15:35;;;;;;;;;;;;;;;27.03;39.85;96176.00;4193061;28;6392;-70
2022/08/16 14:17:45;;;;;;;;;;;;;;;27.04;39.46;96174.09;4192303;28;5841;-70
2022/08/16 14:20:09;;;;;;;;;;;;;;;27.02;39.38;96174.41;4196963;28;5888;-71
2022/08/16 14:22:24;;;;;;;;;;;;;;;27.02;39.35;96170.91;4199501;28;5784;-69
2022/08/16 14:24:33;;;;;;;;;;;;;;;27.06;39.48;96169.16;4200133;28;5698;-70
2022/08/16 14:26:36;;;;;;;;;;;;;;;27.12;39.27;96166.00;4194348;28;5846;-69
2022/08/16 14:28:39;;;;;;;;;;;;;;;27.15;39.54;96165.34;4203596;28;5752;-68
2022/08/16 14:30:43;;;;;;;;;;;;;;;27.14;39.30;96152.91;4217171;28;5884;-68
2022/08/16 14:32:51;;;;;;;;;;;;;;;27.19;39.25;96158.22;4202342;28;5863;-69
2022/08/16 14:34:57;;;;;;;;;;;;;;;27.18;39.24;96159.31;4201666;28;5694;-68
2022/08/16 14:37:02;;;;;;;;;;;;;;;27.17;39.43;96165.84;4210888;28;5676;-68
2022/08/16 14:39:05;;;;;;;;;;;;;;;27.16;39.22;96161.53;4183725;28;5714;-68
2022/08/16 14:41:08;;;;;;;;;;;;;;;27.18;39.09;96156.59;4197013;28;5828;-68
2022/08/16 14:43:12;;;;;;;;;;;;;;;27.17;38.83;96159.63;4203983;28;5773;-68
2022/08/16 14:45:21;;;;;;;;;;;;;;;27.16;38.98;96155.31;4205250;28;5672;-68
2022/08/16 14:47:24;;;;;;;;;;;;;;;27.17;39.03;96149.56;4205253;28;5701;-69
2022/08/16 14:49:38;;;;;;;;;;;;;;;27.17;39.03;96157.69;4201628;28;5696;-68
2022/08/16 14:51:44;;;;;;;;;;;;;;;27.17;38.77;96157.69;4199711;28;5780;-68
2022/08/16 14:53:48;;;;;;;;;;;;;;;27.15;38.78;96154.50;4194784;28;5849;-69
2022/08/16 14:55:54;;;;;;;;;;;;;;;27.18;38.80;96145.75;4199182;28;5689;-68
2022/08/16 14:57:57;;;;;;;;;;;;;;;27.20;38.62;96145.44;4197202;28;5698;-69
2022/08/16 15:00:01;;;;;;;;;;;;;;;27.21;38.95;96150.53;4209860;28;6376;-69
2022/08/16 15:02:13;;;;;;;;;;;;;;;27.19;38.74;96136.50;4202107;28;5760;-69
2022/08/16 15:04:37;;;;;;;;;;;;;;;27.20;38.79;96132.66;4212379;28;5673;-69
2022/08/16 15:06:51;;;;;;;;;;;;;;;27.18;38.73;96129.47;4214709;28;5930;-69
2022/08/16 15:08:57;;;;;;;;;;;;;;;27.19;38.88;96136.50;4195273;28;5754;-69
2022/08/16 15:11:00;;;;;;;;;;;;;;;27.19;38.86;96133.78;4198890;28;6388;-69
2022/08/16 15:13:06;;;;;;;;;;;;;;;27.18;38.86;96134.91;4200791;28;5780;-69
2022/08/16 15:15:14;;;;;;;;;;;;;;;27.17;38.85;96137.91;4197930;28;5956;-69
2022/08/16 15:17:19;;;;;;;;;;;;;;;27.16;38.85;96134.41;4200529;28;5820;-69
2022/08/16 15:19:25;;;;;;;;;;;;;;;27.15;38.79;96132.00;4200024;28;5681;-69
2022/08/16 15:21:31;;;;;;;;;;;;;;;27.16;38.69;96120.03;4204046;28;6376;-69
2022/08/16 15:23:34;;;;;;;;;;;;;;;27.18;38.69;96126.75;4215006;28;5676;-69
2022/08/16 15:25:42;;;;;;;;;;;;;;;27.17;38.70;96122.44;4199458;28;5764;-69
2022/08/16 15:27:45;;;;;;;;;;;;;;;27.19;38.90;96120.22;4196907;28;5682;-69
2022/08/16 15:29:57;;;;;;;;;;;;;;;27.20;38.72;96121.81;4200713;28;5418;-69
2022/08/16 15:32:02;;;;;;;;;;;;;;;27.20;38.43;96121.00;4200421;28;5690;-68
2022/08/16 15:34:10;;;;;;;;;;;;;;;27.26;38.49;96122.44;4200963;28;5706;-69
2022/08/16 15:36:23;;;;;;;;;;;;;;;27.27;38.62;96108.56;4200467;28;6998;-68
2022/08/16 15:38:30;;;;;;;;;;;;;;;27.27;38.58;96111.28;4200097;28;5705;-69
2022/08/16 15:40:53;;;;;;;;;;;;;;;27.25;38.35;96110.00;4200056;28;5780;-70
2022/08/16 15:43:01;;;;;;;;;;;;;;;27.30;38.38;96109.06;4200414;28;5799;-69
2022/08/16 15:45:07;;;;;;;;;;;;;;;27.27;38.33;96105.06;4208468;28;5702;-69
2022/08/16 15:47:14;;;;;;;;;;;;;;;27.27;38.32;96103.13;4200832;28;5777;-68
2022/08/16 15:49:17;;;;;;;;;;;;;;;27.27;38.36;96100.41;4200282;28;5690;-69
2022/08/16 15:51:20;;;;;;;;;;;;;;;27.28;38.40;96098.50;4199377;28;5783;-69
2022/08/16 15:53:26;;;;;;;;;;;;;;;27.24;38.42;96101.06;4199289;28;5844;-69
2022/08/16 15:55:30;;;;;;;;;;;;;;;27.26;38.16;96095.31;4200116;28;5812;-69
2022/08/16 15:57:37;;;;;;;;;;;;;;;27.24;38.13;96095.63;4198747;28;5817;-69
2022/08/16 15:59:48;;;;;;;;;;;;;;;27.26;38.12;96101.53;4197395;28;5859;-69
2022/08/16 16:01:58;;;;;;;;;;;;;;;27.26;38.02;96098.03;4199708;28;5689;-68
2022/08/16 16:04:01;;;;;;;;;;;;;;;27.26;38.29;96101.53;4200226;28;5695;-69
2022/08/16 16:06:05;;;;;;;;;;;;;;;27.32;38.26;96101.41;4200000;28;5110;-69
2022/08/16 16:08:09;;;;;;;;;;;;;;;27.39;38.42;96090.88;4199453;28;5858;-69
2022/08/16 16:10:26;;;;;;;;;;;;;;;27.41;38.41;96088.63;4204449;28;5102;-68
2022/08/16 16:12:33;;;;;;;;;;;;;;;27.44;38.61;96101.59;4199850;28;5705;-69
2022/08/16 16:14:56;;;;;;;;;;;;;;;27.46;38.76;96093.91;4195289;28;5678;-69
2022/08/16 16:16:59;;;;;;;;;;;;;;;27.48;38.93;96094.38;4195019;28;5109;-68
2022/08/16 16:19:03;;;;;;;;;;;;;;;27.48;38.96;96091.69;4193952;28;5639;-69
2022/08/16 16:21:11;;;;;;;;;;;;;;;27.49;38.91;96090.56;4196300;28;5780;-69
2022/08/16 16:23:25;;;;;;;;;;;;;;;27.48;38.89;96081.63;4196922;28;6469;-68
2022/08/16 16:25:32;;;;;;;;;;;;;;;27.49;38.86;96074.28;4192982;28;5765;-68
2022/08/16 16:27:37;;;;;;;;;;;;;;;27.47;38.80;96081.94;4196250;28;5685;-68
2022/08/16 16:29:40;;;;;;;;;;;;;;;27.50;38.96;96086.72;4200939;28;5757;-68
2022/08/16 16:31:48;;;;;;;;;;;;;;;27.52;38.80;96079.06;4195697;28;5777;-68
2022/08/16 16:34:02;;;;;;;;;;;;;;;27.51;38.97;96072.81;4199169;28;5694;-68
2022/08/16 16:36:07;;;;;;;;;;;;;;;27.51;39.06;96077.47;4197505;28;5686;-69
2022/08/16 16:38:10;;;;;;;;;;;;;;;27.51;38.85;96078.25;4192691;28;5722;-69
2022/08/16 16:40:13;;;;;;;;;;;;;;;27.52;38.99;96068.19;4183702;28;5724;-69
2022/08/16 16:42:34;;;;;;;;;;;;;;;27.52;38.81;96062.75;4192050;28;5895;-62